Darien, GA

12:07 AM EDT on September 17, 2014 (GMT -0400)
Wright Army Air Field | Change Station
CLOSE
Current Station
Airport
Location: Ft. Stewart,
Elevation: 46 ft
Nearby Weather Stations

Elev 46 ft 31.89 °N, 81.56 °W | Updated 9 minutes ago

Overcast
Overcast
73 °F
Feels Like 73 °F
N
5
Wind Variable Wind from West

Today
High -- | Low -- °F
--% Chance of Precip.
Yesterday
High -- | Low -- °F
Precip. -- in
7:11 AM 7:28 PM
Last Quarter, 39% visible
Pressure 29.96 in
Visibility 10.0 miles
Clouds Few 4900 ft
Scattered Clouds 9000 ft
Dew Point 68 °F
Humidity 86%
Rainfall 0.00 in
Snow Depth Not available.
UV 0 out of 12
Pollen 6.60 out of 12
Air Quality Not available.
Flu Activity Not available.
METAR KLHW 170358Z AUTO 27004KT 10SM FEW049 SCT090 23/20 A2995 RMK AO2 SLP145 T02260202

More Conditions Fewer Conditions

Pressure 29.96 in
Visibility 10.0 miles
Clouds Few 4900 ft
Scattered Clouds 9000 ft
Dew Point 68 °F
Humidity 86%
Rainfall 0.00 in
Snow Depth Not available.
UV 0 out of 12
Pollen 6.60 out of 12
Air Quality Not available.
Flu Activity Not available.
METAR KLHW 170358Z AUTO 27004KT 10SM FEW049 SCT090 23/20 A2995 RMK AO2 SLP145 T02260202

More Conditions Fewer Conditions

10-Day Weather Forecast

Almanac

Astronomy

Sep. 17, 2014 Rise Set
Actual Time 7:11 AM EDT 7:28 PM EDT
Civil Twilight 6:46 AM EDT 7:53 PM EDT
Nautical Twilight 6:18 AM EDT 8:21 PM EDT
Astronomical Twilight 5:49 AM EDT 8:50 PM EDT
Moon 1:25 AM EDT 3:22 PM EDT
Length of Visible Light 13h 06m
Length of Day
12h 17m
Tomorrow will be 1m 53s shorter.
Last Quarter, 39% of the Moon is Illuminated
Today
Last Quarter
Sep 24
New
Oct 1
First Quarter
Oct 8
Full
Oct 15
Last Quarter

Yesterday's Extremes

State Highs State Lows

Community

WunderPhotos

Upload Photos

1,753,965 photos uploaded!

Nearby

Snow Depth

Station Depth Elevation
No new snow has been reported.

Earthquake Activity

City Distance Mag. Time & Date
No recent earthquake activity has been reported nearby.
Minimum magnitude displayed is 2.5.

Coastal Water Temperatures

Place Temperature
No Stations Reporting

Nearby Weather Stations